aviador You're here:

LFAQ Decoded Metar

ALBERT in FRANCE
Report Time2017-10-17 20:00:00
UTC Time2017-10-17 20:27:41
Flight Rules vfr VFR
Wind040° at 05 kt
W.Decomp.*RWY 09: 3.3 kt HW 3.8 kt LCW
W.Rank040° ranks 9
Current wind is below 040° avg. (7.7)
Visibility9999 m
Phenomena:N/A
Clouds:N/A
Expected CloudBase > 400 ft AGL from Temp-Dew spread
CeilingNone
Temp14°C (ISA -0)
Dew Point13°C (94% RH)
AAT13.1°C
QNH1016 hPa
Density Alt430 ft
Elevation364 ft
Report Wrong Elevation
Raw Report
METAR LFAQ 172000Z AUTO 04005KT CAVOK 14/13 Q1016=

Extra information for LFAQ:More info

Metar Taf Metar & Taf Last 4 Metars F.Rules Stats Wind Profile Meteogram Temp Stats Airport Information Weather charts Add Link Nearby VenuesMetar ALERT Operation Metar Decoded Social comments